sensor_id;sensor_type;location;lat;lon;timestamp;P1;durP1;ratioP1;P2;durP2;ratioP2
56130;SDS011;42000;44.774;20.506;2023-02-15T07:30:47;90.65;;;48.00;;
56130;SDS011;42000;44.774;20.506;2023-02-15T07:33:14;86.30;;;45.63;;
56130;SDS011;42000;44.774;20.506;2023-02-15T07:35:50;67.72;;;38.25;;
56130;SDS011;42000;44.774;20.506;2023-02-15T07:38:16;61.63;;;35.92;;
56130;SDS011;42000;44.774;20.506;2023-02-15T07:40:43;63.78;;;37.55;;
56130;SDS011;42000;44.774;20.506;2023-02-15T07:43:09;63.95;;;35.10;;
56130;SDS011;42000;44.774;20.506;2023-02-15T07:45:35;64.07;;;32.92;;
56130;SDS011;42000;44.774;20.506;2023-02-15T07:48:02;58.63;;;31.80;;
56130;SDS011;42000;44.774;20.506;2023-02-15T07:50:28;59.13;;;31.80;;
56130;SDS011;42000;44.774;20.506;2023-02-15T07:52:54;57.00;;;31.80;;
56130;SDS011;42000;44.774;20.506;2023-02-15T07:55:20;56.05;;;31.27;;
56130;SDS011;42000;44.774;20.506;2023-02-15T07:57:46;57.28;;;32.28;;
56130;SDS011;42000;44.774;20.506;2023-02-15T08:00:13;56.95;;;31.92;;
56130;SDS011;42000;44.774;20.506;2023-02-15T08:02:40;55.60;;;30.33;;
56130;SDS011;42000;44.774;20.506;2023-02-15T08:05:06;54.30;;;30.77;;
56130;SDS011;42000;44.774;20.506;2023-02-15T08:07:32;51.90;;;29.55;;
56130;SDS011;42000;44.774;20.506;2023-02-15T08:09:58;53.72;;;30.30;;
56130;SDS011;42000;44.774;20.506;2023-02-15T08:12:28;49.15;;;28.08;;
56130;SDS011;42000;44.774;20.506;2023-02-15T08:14:54;54.25;;;29.77;;
56130;SDS011;42000;44.774;20.506;2023-02-15T08:17:20;51.78;;;29.70;;
56130;SDS011;42000;44.774;20.506;2023-02-15T08:19:46;54.50;;;29.20;;
56130;SDS011;42000;44.774;20.506;2023-02-15T08:22:13;49.58;;;30.08;;
56130;SDS011;42000;44.774;20.506;2023-02-15T08:24:39;50.53;;;27.98;;
56130;SDS011;42000;44.774;20.506;2023-02-15T08:27:07;52.75;;;30.73;;
56130;SDS011;42000;44.774;20.506;2023-02-15T08:29:34;57.60;;;32.83;;
56130;SDS011;42000;44.774;20.506;2023-02-15T08:32:02;51.00;;;28.23;;
56130;SDS011;42000;44.774;20.506;2023-02-15T08:34:30;53.53;;;29.65;;
56130;SDS011;42000;44.774;20.506;2023-02-15T08:37:01;54.65;;;28.85;;
56130;SDS011;42000;44.774;20.506;2023-02-15T08:39:31;44.92;;;25.42;;
56130;SDS011;42000;44.774;20.506;2023-02-15T08:41:57;43.90;;;25.17;;
56130;SDS011;42000;44.774;20.506;2023-02-15T08:44:24;43.35;;;23.38;;
56130;SDS011;42000;44.774;20.506;2023-02-15T08:46:50;41.60;;;24.23;;
56130;SDS011;42000;44.774;20.506;2023-02-15T08:49:17;56.00;;;27.63;;
56130;SDS011;42000;44.774;20.506;2023-02-15T08:51:43;49.63;;;25.17;;
56130;SDS011;42000;44.774;20.506;2023-02-15T08:54:12;52.63;;;27.60;;
56130;SDS011;42000;44.774;20.506;2023-02-15T08:56:39;48.72;;;25.95;;
56130;SDS011;42000;44.774;20.506;2023-02-15T08:59:05;66.93;;;31.42;;
56130;SDS011;42000;44.774;20.506;2023-02-15T09:01:32;53.05;;;27.42;;
56130;SDS011;42000;44.774;20.506;2023-02-15T09:03:59;55.13;;;26.45;;
56130;SDS011;42000;44.774;20.506;2023-02-15T09:06:26;43.53;;;23.23;;
56130;SDS011;42000;44.774;20.506;2023-02-15T09:08:52;40.22;;;22.10;;
56130;SDS011;42000;44.774;20.506;2023-02-15T09:11:20;41.75;;;23.30;;
56130;SDS011;42000;44.774;20.506;2023-02-15T09:13:53;35.63;;;20.65;;
56130;SDS011;42000;44.774;20.506;2023-02-15T09:16:19;38.20;;;20.65;;
56130;SDS011;42000;44.774;20.506;2023-02-15T09:18:46;40.08;;;20.77;;
56130;SDS011;42000;44.774;20.506;2023-02-15T09:21:14;36.80;;;19.65;;
56130;SDS011;42000;44.774;20.506;2023-02-15T09:23:40;35.35;;;20.25;;
56130;SDS011;42000;44.774;20.506;2023-02-15T09:26:07;32.28;;;20.15;;
56130;SDS011;42000;44.774;20.506;2023-02-15T09:28:34;35.40;;;20.27;;
56130;SDS011;42000;44.774;20.506;2023-02-15T09:31:04;39.33;;;21.85;;
56130;SDS011;42000;44.774;20.506;2023-02-15T09:33:32;37.83;;;21.83;;
56130;SDS011;42000;44.774;20.506;2023-02-15T09:35:58;32.70;;;18.20;;
56130;SDS011;42000;44.774;20.506;2023-02-15T09:38:24;37.33;;;21.40;;
56130;SDS011;42000;44.774;20.506;2023-02-15T09:40:54;36.20;;;19.45;;
56130;SDS011;42000;44.774;20.506;2023-02-15T09:43:57;33.78;;;17.42;;
56130;SDS011;42000;44.774;20.506;2023-02-15T09:48:41;29.38;;;16.50;;
56130;SDS011;42000;44.774;20.506;2023-02-15T10:14:55;35.85;;;20.42;;
56130;SDS011;42000;44.774;20.506;2023-02-15T10:17:41;35.63;;;19.75;;
56130;SDS011;42000;44.774;20.506;2023-02-15T10:28:06;30.42;;;16.40;;
56130;SDS011;42000;44.774;20.506;2023-02-15T10:30:41;29.70;;;17.13;;
56130;SDS011;42000;44.774;20.506;2023-02-15T10:41:12;30.73;;;18.17;;
56130;SDS011;42000;44.774;20.506;2023-02-15T10:43:49;32.25;;;18.63;;
56130;SDS011;42000;44.774;20.506;2023-02-15T10:52:08;32.75;;;17.88;;
56130;SDS011;42000;44.774;20.506;2023-02-15T10:57:26;32.20;;;18.55;;
56130;SDS011;42000;44.774;20.506;2023-02-15T11:07:28;33.17;;;18.20;;
56130;SDS011;42000;44.774;20.506;2023-02-15T11:12:33;35.10;;;20.65;;
56130;SDS011;42000;44.774;20.506;2023-02-15T11:17:37;34.55;;;19.30;;
56130;SDS011;42000;44.774;20.506;2023-02-15T11:20:14;34.10;;;20.20;;
56130;SDS011;42000;44.774;20.506;2023-02-15T11:22:42;29.52;;;17.88;;
56130;SDS011;42000;44.774;20.506;2023-02-15T11:25:18;34.95;;;20.63;;
56130;SDS011;42000;44.774;20.506;2023-02-15T11:27:46;34.72;;;19.73;;
56130;SDS011;42000;44.774;20.506;2023-02-15T11:30:14;33.22;;;18.77;;
56130;SDS011;42000;44.774;20.506;2023-02-15T11:32:44;33.03;;;19.90;;
56130;SDS011;42000;44.774;20.506;2023-02-15T11:40:29;35.03;;;18.92;;
56130;SDS011;42000;44.774;20.506;2023-02-15T11:42:56;30.17;;;18.73;;
56130;SDS011;42000;44.774;20.506;2023-02-15T11:45:27;31.13;;;18.88;;
56130;SDS011;42000;44.774;20.506;2023-02-15T11:47:54;31.73;;;17.92;;
56130;SDS011;42000;44.774;20.506;2023-02-15T11:50:22;33.95;;;17.90;;
56130;SDS011;42000;44.774;20.506;2023-02-15T11:52:49;29.92;;;17.40;;
56130;SDS011;42000;44.774;20.506;2023-02-15T11:55:18;32.28;;;18.65;;
56130;SDS011;42000;44.774;20.506;2023-02-15T11:57:46;29.35;;;18.15;;
56130;SDS011;42000;44.774;20.506;2023-02-15T12:02:40;30.02;;;17.88;;
56130;SDS011;42000;44.774;20.506;2023-02-15T12:05:11;28.60;;;17.90;;
56130;SDS011;42000;44.774;20.506;2023-02-15T12:10:27;30.67;;;18.40;;
56130;SDS011;42000;44.774;20.506;2023-02-15T12:13:13;30.95;;;17.88;;
56130;SDS011;42000;44.774;20.506;2023-02-15T12:16:04;32.53;;;19.17;;
56130;SDS011;42000;44.774;20.506;2023-02-15T12:20:51;31.77;;;18.98;;
56130;SDS011;42000;44.774;20.506;2023-02-15T12:23:17;29.50;;;18.65;;
56130;SDS011;42000;44.774;20.506;2023-02-15T12:25:54;32.30;;;18.08;;
56130;SDS011;42000;44.774;20.506;2023-02-15T12:28:34;31.30;;;18.85;;
56130;SDS011;42000;44.774;20.506;2023-02-15T12:31:02;27.13;;;16.77;;
56130;SDS011;42000;44.774;20.506;2023-02-15T12:33:50;31.00;;;18.10;;
56130;SDS011;42000;44.774;20.506;2023-02-15T12:36:17;37.20;;;20.35;;
56130;SDS011;42000;44.774;20.506;2023-02-15T12:39:00;32.45;;;18.85;;
56130;SDS011;42000;44.774;20.506;2023-02-15T12:41:27;31.92;;;18.88;;
56130;SDS011;42000;44.774;20.506;2023-02-15T12:44:06;33.00;;;20.00;;
56130;SDS011;42000;44.774;20.506;2023-02-15T12:46:33;30.23;;;18.75;;
56130;SDS011;42000;44.774;20.506;2023-02-15T12:51:41;30.10;;;17.85;;
56130;SDS011;42000;44.774;20.506;2023-02-15T12:54:20;31.45;;;18.27;;
56130;SDS011;42000;44.774;20.506;2023-02-15T12:56:50;29.15;;;17.70;;
56130;SDS011;42000;44.774;20.506;2023-02-15T12:59:17;34.50;;;19.23;;
56130;SDS011;42000;44.774;20.506;2023-02-15T13:01:46;31.98;;;17.90;;
56130;SDS011;42000;44.774;20.506;2023-02-15T13:04:22;33.35;;;17.98;;
56130;SDS011;42000;44.774;20.506;2023-02-15T13:06:49;31.20;;;18.50;;
56130;SDS011;42000;44.774;20.506;2023-02-15T13:11:45;28.10;;;17.63;;
56130;SDS011;42000;44.774;20.506;2023-02-15T13:14:16;33.47;;;20.25;;
56130;SDS011;42000;44.774;20.506;2023-02-15T13:16:44;45.53;;;24.10;;
56130;SDS011;42000;44.774;20.506;2023-02-15T13:19:12;41.20;;;22.80;;
56130;SDS011;42000;44.774;20.506;2023-02-15T13:21:41;34.78;;;20.00;;
56130;SDS011;42000;44.774;20.506;2023-02-15T13:26:37;35.67;;;19.80;;
56130;SDS011;42000;44.774;20.506;2023-02-15T13:29:06;35.35;;;20.85;;
56130;SDS011;42000;44.774;20.506;2023-02-15T13:31:34;35.90;;;19.00;;
56130;SDS011;42000;44.774;20.506;2023-02-15T13:34:12;34.45;;;20.27;;
56130;SDS011;42000;44.774;20.506;2023-02-15T13:49:50;35.17;;;19.48;;
56130;SDS011;42000;44.774;20.506;2023-02-15T13:52:22;34.72;;;20.20;;
56130;SDS011;42000;44.774;20.506;2023-02-15T13:57:27;34.40;;;19.80;;
56130;SDS011;42000;44.774;20.506;2023-02-15T14:02:30;32.15;;;20.08;;
56130;SDS011;42000;44.774;20.506;2023-02-15T14:05:13;36.75;;;20.98;;
56130;SDS011;42000;44.774;20.506;2023-02-15T14:07:53;38.42;;;20.70;;
56130;SDS011;42000;44.774;20.506;2023-02-15T14:15:53;34.67;;;19.90;;
56130;SDS011;42000;44.774;20.506;2023-02-15T14:18:26;25.33;;;16.05;;
56130;SDS011;42000;44.774;20.506;2023-02-15T14:26:19;40.63;;;22.65;;
56130;SDS011;42000;44.774;20.506;2023-02-15T14:31:09;36.28;;;20.65;;
56130;SDS011;42000;44.774;20.506;2023-02-15T14:33:41;38.45;;;22.15;;
56130;SDS011;42000;44.774;20.506;2023-02-15T14:36:10;31.60;;;17.43;;
56130;SDS011;42000;44.774;20.506;2023-02-15T14:48:46;57.28;;;29.85;;
56130;SDS011;42000;44.774;20.506;2023-02-15T14:57:25;52.85;;;27.05;;
56130;SDS011;42000;44.774;20.506;2023-02-15T15:01:59;45.85;;;26.63;;
56130;SDS011;42000;44.774;20.506;2023-02-15T15:04:33;46.10;;;26.85;;
56130;SDS011;42000;44.774;20.506;2023-02-15T15:07:19;44.35;;;25.70;;
56130;SDS011;42000;44.774;20.506;2023-02-15T15:09:48;44.00;;;25.38;;
56130;SDS011;42000;44.774;20.506;2023-02-15T15:14:51;50.13;;;25.75;;
56130;SDS011;42000;44.774;20.506;2023-02-15T15:22:28;48.67;;;26.55;;
56130;SDS011;42000;44.774;20.506;2023-02-15T15:24:58;43.35;;;24.90;;
56130;SDS011;42000;44.774;20.506;2023-02-15T15:33:02;41.50;;;24.10;;
56130;SDS011;42000;44.774;20.506;2023-02-15T15:48:59;36.45;;;21.05;;
56130;SDS011;42000;44.774;20.506;2023-02-15T15:51:32;40.70;;;23.33;;
56130;SDS011;42000;44.774;20.506;2023-02-15T15:53:58;219.35;;;67.15;;
56130;SDS011;42000;44.774;20.506;2023-02-15T15:56:27;129.82;;;46.88;;
56130;SDS011;42000;44.774;20.506;2023-02-15T15:58:57;99.32;;;40.63;;
56130;SDS011;42000;44.774;20.506;2023-02-15T16:01:27;80.18;;;36.17;;
56130;SDS011;42000;44.774;20.506;2023-02-15T16:03:54;65.47;;;34.10;;
56130;SDS011;42000;44.774;20.506;2023-02-15T16:06:28;48.20;;;24.83;;
56130;SDS011;42000;44.774;20.506;2023-02-15T16:08:55;49.50;;;26.55;;
56130;SDS011;42000;44.774;20.506;2023-02-15T16:11:23;62.67;;;32.00;;
56130;SDS011;42000;44.774;20.506;2023-02-15T16:13:49;61.20;;;31.38;;
56130;SDS011;42000;44.774;20.506;2023-02-15T16:16:20;196.02;;;82.30;;
56130;SDS011;42000;44.774;20.506;2023-02-15T16:18:47;101.63;;;47.50;;
56130;SDS011;42000;44.774;20.506;2023-02-15T16:21:20;72.18;;;36.42;;
56130;SDS011;42000;44.774;20.506;2023-02-15T16:28:54;74.45;;;37.95;;
56130;SDS011;42000;44.774;20.506;2023-02-15T16:31:20;60.92;;;33.80;;
56130;SDS011;42000;44.774;20.506;2023-02-15T16:33:47;66.93;;;35.33;;
56130;SDS011;42000;44.774;20.506;2023-02-15T16:36:21;86.95;;;45.35;;
56130;SDS011;42000;44.774;20.506;2023-02-15T16:41:13;67.82;;;37.85;;
56130;SDS011;42000;44.774;20.506;2023-02-15T16:43:41;76.00;;;41.53;;
56130;SDS011;42000;44.774;20.506;2023-02-15T16:46:13;89.90;;;48.53;;
56130;SDS011;42000;44.774;20.506;2023-02-15T16:48:43;91.40;;;48.17;;
56130;SDS011;42000;44.774;20.506;2023-02-15T16:51:10;97.20;;;47.17;;
56130;SDS011;42000;44.774;20.506;2023-02-15T16:53:45;92.35;;;47.72;;
56130;SDS011;42000;44.774;20.506;2023-02-15T16:56:12;85.47;;;43.42;;
56130;SDS011;42000;44.774;20.506;2023-02-15T16:58:42;89.78;;;46.65;;
56130;SDS011;42000;44.774;20.506;2023-02-15T17:01:10;97.53;;;50.72;;
56130;SDS011;42000;44.774;20.506;2023-02-15T17:03:37;104.35;;;53.88;;
56130;SDS011;42000;44.774;20.506;2023-02-15T17:06:03;111.13;;;56.65;;
56130;SDS011;42000;44.774;20.506;2023-02-15T17:08:43;107.30;;;55.97;;
56130;SDS011;42000;44.774;20.506;2023-02-15T17:13:38;106.65;;;55.78;;
56130;SDS011;42000;44.774;20.506;2023-02-15T17:21:01;124.03;;;63.75;;
56130;SDS011;42000;44.774;20.506;2023-02-15T17:23:36;102.68;;;54.40;;
56130;SDS011;42000;44.774;20.506;2023-02-15T17:26:10;98.57;;;51.17;;
56130;SDS011;42000;44.774;20.506;2023-02-15T17:28:37;91.95;;;49.22;;
56130;SDS011;42000;44.774;20.506;2023-02-15T17:31:06;94.32;;;48.50;;
56130;SDS011;42000;44.774;20.506;2023-02-15T17:36:09;96.03;;;51.17;;
56130;SDS011;42000;44.774;20.506;2023-02-15T17:38:38;101.80;;;50.63;;
56130;SDS011;42000;44.774;20.506;2023-02-15T17:41:04;113.07;;;56.60;;
56130;SDS011;42000;44.774;20.506;2023-02-15T17:43:30;111.90;;;55.83;;
56130;SDS011;42000;44.774;20.506;2023-02-15T17:45:57;115.43;;;58.47;;
56130;SDS011;42000;44.774;20.506;2023-02-15T17:48:35;117.43;;;57.13;;
56130;SDS011;42000;44.774;20.506;2023-02-15T17:51:03;115.25;;;59.85;;
56130;SDS011;42000;44.774;20.506;2023-02-15T17:53:30;108.68;;;55.22;;
56130;SDS011;42000;44.774;20.506;2023-02-15T17:55:56;108.85;;;56.88;;
56130;SDS011;42000;44.774;20.506;2023-02-15T17:58:22;109.35;;;54.30;;
56130;SDS011;42000;44.774;20.506;2023-02-15T18:00:54;99.90;;;50.22;;
56130;SDS011;42000;44.774;20.506;2023-02-15T18:06:23;98.88;;;51.13;;
56130;SDS011;42000;44.774;20.506;2023-02-15T18:09:18;127.18;;;61.22;;
56130;SDS011;42000;44.774;20.506;2023-02-15T18:12:45;136.50;;;68.53;;
56130;SDS011;42000;44.774;20.506;2023-02-15T18:14:52;128.57;;;65.10;;
56130;SDS011;42000;44.774;20.506;2023-02-15T18:17:20;133.75;;;68.25;;
56130;SDS011;42000;44.774;20.506;2023-02-15T18:19:47;146.43;;;71.25;;
56130;SDS011;42000;44.774;20.506;2023-02-15T18:22:15;149.43;;;69.97;;
56130;SDS011;42000;44.774;20.506;2023-02-15T18:24:42;147.32;;;72.25;;
56130;SDS011;42000;44.774;20.506;2023-02-15T18:27:09;137.85;;;70.13;;
56130;SDS011;42000;44.774;20.506;2023-02-15T18:29:36;148.45;;;71.35;;
56130;SDS011;42000;44.774;20.506;2023-02-15T18:32:02;147.80;;;73.35;;
56130;SDS011;42000;44.774;20.506;2023-02-15T18:34:31;155.52;;;75.45;;
56130;SDS011;42000;44.774;20.506;2023-02-15T18:36:58;158.65;;;77.07;;
56130;SDS011;42000;44.774;20.506;2023-02-15T18:39:28;154.35;;;77.50;;
56130;SDS011;42000;44.774;20.506;2023-02-15T18:41:57;149.50;;;75.00;;
56130;SDS011;42000;44.774;20.506;2023-02-15T18:44:24;146.32;;;71.05;;
56130;SDS011;42000;44.774;20.506;2023-02-15T18:46:50;134.98;;;67.72;;
56130;SDS011;42000;44.774;20.506;2023-02-15T18:49:16;133.43;;;63.92;;
56130;SDS011;42000;44.774;20.506;2023-02-15T18:51:42;126.43;;;62.50;;
56130;SDS011;42000;44.774;20.506;2023-02-15T18:54:14;130.88;;;62.45;;
56130;SDS011;42000;44.774;20.506;2023-02-15T18:56:41;125.85;;;63.28;;
56130;SDS011;42000;44.774;20.506;2023-02-15T18:59:13;121.03;;;60.63;;
56130;SDS011;42000;44.774;20.506;2023-02-15T19:01:40;112.75;;;55.75;;
56130;SDS011;42000;44.774;20.506;2023-02-15T19:04:07;112.13;;;55.40;;
56130;SDS011;42000;44.774;20.506;2023-02-15T19:06:33;116.22;;;56.97;;
56130;SDS011;42000;44.774;20.506;2023-02-15T19:08:59;111.60;;;55.20;;
56130;SDS011;42000;44.774;20.506;2023-02-15T19:11:26;116.85;;;57.30;;
56130;SDS011;42000;44.774;20.506;2023-02-15T19:13:53;111.05;;;57.55;;
56130;SDS011;42000;44.774;20.506;2023-02-15T19:16:24;115.80;;;58.63;;
56130;SDS011;42000;44.774;20.506;2023-02-15T19:18:51;122.45;;;59.75;;
56130;SDS011;42000;44.774;20.506;2023-02-15T19:21:17;116.45;;;59.63;;
56130;SDS011;42000;44.774;20.506;2023-02-15T19:23:45;120.43;;;58.90;;
56130;SDS011;42000;44.774;20.506;2023-02-15T19:26:13;118.75;;;59.40;;
56130;SDS011;42000;44.774;20.506;2023-02-15T19:28:39;126.78;;;60.00;;
56130;SDS011;42000;44.774;20.506;2023-02-15T19:31:08;127.85;;;65.53;;
56130;SDS011;42000;44.774;20.506;2023-02-15T19:33:35;124.80;;;65.25;;
56130;SDS011;42000;44.774;20.506;2023-02-15T19:36:01;137.30;;;67.75;;
56130;SDS011;42000;44.774;20.506;2023-02-15T19:38:29;139.02;;;70.75;;
56130;SDS011;42000;44.774;20.506;2023-02-15T19:40:57;140.52;;;71.10;;
56130;SDS011;42000;44.774;20.506;2023-02-15T19:43:25;139.00;;;69.35;;
56130;SDS011;42000;44.774;20.506;2023-02-15T19:45:52;136.07;;;70.00;;
56130;SDS011;42000;44.774;20.506;2023-02-15T19:48:18;135.55;;;67.88;;
56130;SDS011;42000;44.774;20.506;2023-02-15T19:50:44;129.50;;;68.60;;
56130;SDS011;42000;44.774;20.506;2023-02-15T19:53:17;130.52;;;67.57;;
56130;SDS011;42000;44.774;20.506;2023-02-15T19:55:46;129.35;;;67.20;;
56130;SDS011;42000;44.774;20.506;2023-02-15T19:58:12;139.45;;;67.70;;
56130;SDS011;42000;44.774;20.506;2023-02-15T20:00:38;123.43;;;64.18;;
56130;SDS011;42000;44.774;20.506;2023-02-15T20:03:04;128.23;;;66.65;;
56130;SDS011;42000;44.774;20.506;2023-02-15T20:05:30;129.82;;;65.75;;
56130;SDS011;42000;44.774;20.506;2023-02-15T20:07:58;131.55;;;66.78;;
56130;SDS011;42000;44.774;20.506;2023-02-15T20:10:28;135.05;;;65.50;;
56130;SDS011;42000;44.774;20.506;2023-02-15T20:12:54;132.07;;;65.15;;
56130;SDS011;42000;44.774;20.506;2023-02-15T20:15:24;142.93;;;68.47;;
56130;SDS011;42000;44.774;20.506;2023-02-15T20:17:54;164.50;;;77.57;;
56130;SDS011;42000;44.774;20.506;2023-02-15T20:20:20;137.20;;;66.97;;
56130;SDS011;42000;44.774;20.506;2023-02-15T20:22:48;139.35;;;69.25;;
56130;SDS011;42000;44.774;20.506;2023-02-15T20:25:17;131.35;;;65.03;;
56130;SDS011;42000;44.774;20.506;2023-02-15T20:27:43;128.77;;;65.03;;
56130;SDS011;42000;44.774;20.506;2023-02-15T20:30:13;126.22;;;62.20;;
56130;SDS011;42000;44.774;20.506;2023-02-15T20:32:39;114.75;;;56.78;;
56130;SDS011;42000;44.774;20.506;2023-02-15T20:35:05;139.40;;;68.03;;
56130;SDS011;42000;44.774;20.506;2023-02-15T20:37:32;167.77;;;81.53;;
56130;SDS011;42000;44.774;20.506;2023-02-15T20:39:58;160.98;;;80.07;;
56130;SDS011;42000;44.774;20.506;2023-02-15T20:42:24;160.35;;;76.60;;
56130;SDS011;42000;44.774;20.506;2023-02-15T20:44:50;145.82;;;70.88;;
56130;SDS011;42000;44.774;20.506;2023-02-15T20:47:16;140.70;;;68.60;;
56130;SDS011;42000;44.774;20.506;2023-02-15T20:49:42;106.80;;;52.08;;
56130;SDS011;42000;44.774;20.506;2023-02-15T20:52:14;104.60;;;52.90;;
56130;SDS011;42000;44.774;20.506;2023-02-15T20:54:41;106.95;;;54.35;;
56130;SDS011;42000;44.774;20.506;2023-02-15T20:57:10;111.22;;;54.95;;
56130;SDS011;42000;44.774;20.506;2023-02-15T20:59:36;111.05;;;56.15;;
56130;SDS011;42000;44.774;20.506;2023-02-15T21:02:18;125.90;;;61.22;;
56130;SDS011;42000;44.774;20.506;2023-02-15T21:04:47;111.43;;;54.78;;
56130;SDS011;42000;44.774;20.506;2023-02-15T21:07:17;98.20;;;47.53;;
56130;SDS011;42000;44.774;20.506;2023-02-15T21:09:44;85.57;;;45.33;;
56130;SDS011;42000;44.774;20.506;2023-02-15T21:12:12;85.90;;;44.90;;
56130;SDS011;42000;44.774;20.506;2023-02-15T21:14:38;100.10;;;51.03;;
56130;SDS011;42000;44.774;20.506;2023-02-15T21:17:04;93.80;;;47.50;;
56130;SDS011;42000;44.774;20.506;2023-02-15T21:19:30;82.15;;;42.58;;
56130;SDS011;42000;44.774;20.506;2023-02-15T21:21:56;88.90;;;46.35;;
56130;SDS011;42000;44.774;20.506;2023-02-15T21:24:25;86.93;;;45.13;;
56130;SDS011;42000;44.774;20.506;2023-02-15T21:26:53;75.38;;;40.03;;
56130;SDS011;42000;44.774;20.506;2023-02-15T21:29:29;83.75;;;42.70;;
56130;SDS011;42000;44.774;20.506;2023-02-15T21:31:55;77.47;;;41.10;;
56130;SDS011;42000;44.774;20.506;2023-02-15T21:34:26;77.38;;;39.38;;
56130;SDS011;42000;44.774;20.506;2023-02-15T21:36:52;84.18;;;42.75;;
56130;SDS011;42000;44.774;20.506;2023-02-15T21:41:45;75.32;;;39.38;;
56130;SDS011;42000;44.774;20.506;2023-02-15T21:44:43;77.10;;;38.50;;
56130;SDS011;42000;44.774;20.506;2023-02-15T21:47:29;84.38;;;41.80;;
56130;SDS011;42000;44.774;20.506;2023-02-15T21:50:19;73.20;;;40.03;;
56130;SDS011;42000;44.774;20.506;2023-02-15T21:53:04;85.40;;;43.05;;
56130;SDS011;42000;44.774;20.506;2023-02-15T21:55:31;89.68;;;44.63;;
56130;SDS011;42000;44.774;20.506;2023-02-15T21:58:00;87.47;;;44.17;;
56130;SDS011;42000;44.774;20.506;2023-02-15T22:00:26;84.40;;;42.50;;
56130;SDS011;42000;44.774;20.506;2023-02-15T22:02:54;77.70;;;39.85;;
56130;SDS011;42000;44.774;20.506;2023-02-15T22:05:30;74.20;;;38.83;;
56130;SDS011;42000;44.774;20.506;2023-02-15T22:07:57;75.18;;;39.20;;
56130;SDS011;42000;44.774;20.506;2023-02-15T22:10:27;84.60;;;44.08;;
56130;SDS011;42000;44.774;20.506;2023-02-15T22:12:53;92.50;;;48.10;;
56130;SDS011;42000;44.774;20.506;2023-02-15T22:15:21;97.32;;;48.22;;
56130;SDS011;42000;44.774;20.506;2023-02-15T22:17:48;105.25;;;51.25;;
56130;SDS011;42000;44.774;20.506;2023-02-15T22:20:15;98.40;;;50.03;;
56130;SDS011;42000;44.774;20.506;2023-02-15T22:22:47;96.25;;;47.92;;
56130;SDS011;42000;44.774;20.506;2023-02-15T22:25:18;96.93;;;47.60;;
56130;SDS011;42000;44.774;20.506;2023-02-15T22:27:45;96.50;;;49.28;;
56130;SDS011;42000;44.774;20.506;2023-02-15T22:30:27;96.78;;;49.58;;
56130;SDS011;42000;44.774;20.506;2023-02-15T22:32:55;94.30;;;46.72;;
56130;SDS011;42000;44.774;20.506;2023-02-15T22:35:31;80.63;;;40.45;;
56130;SDS011;42000;44.774;20.506;2023-02-15T22:37:58;78.68;;;39.05;;
56130;SDS011;42000;44.774;20.506;2023-02-15T22:40:31;75.97;;;38.20;;
56130;SDS011;42000;44.774;20.506;2023-02-15T22:43:02;70.03;;;36.22;;
56130;SDS011;42000;44.774;20.506;2023-02-15T22:45:28;72.57;;;37.67;;
56130;SDS011;42000;44.774;20.506;2023-02-15T22:47:57;77.32;;;39.97;;
56130;SDS011;42000;44.774;20.506;2023-02-15T22:50:29;72.70;;;37.67;;
56130;SDS011;42000;44.774;20.506;2023-02-15T22:52:55;74.32;;;37.40;;
56130;SDS011;42000;44.774;20.506;2023-02-15T22:55:22;73.10;;;37.70;;
56130;SDS011;42000;44.774;20.506;2023-02-15T22:57:50;76.68;;;38.58;;
56130;SDS011;42000;44.774;20.506;2023-02-15T23:00:21;71.80;;;36.53;;
56130;SDS011;42000;44.774;20.506;2023-02-15T23:02:48;76.93;;;38.20;;
56130;SDS011;42000;44.774;20.506;2023-02-15T23:05:25;75.70;;;37.65;;
56130;SDS011;42000;44.774;20.506;2023-02-15T23:07:51;68.93;;;35.13;;
56130;SDS011;42000;44.774;20.506;2023-02-15T23:10:17;72.70;;;35.90;;
56130;SDS011;42000;44.774;20.506;2023-02-15T23:12:57;69.95;;;35.38;;
56130;SDS011;42000;44.774;20.506;2023-02-15T23:15:43;73.43;;;35.95;;
56130;SDS011;42000;44.774;20.506;2023-02-15T23:18:13;65.30;;;32.97;;
56130;SDS011;42000;44.774;20.506;2023-02-15T23:20:41;68.53;;;34.50;;
56130;SDS011;42000;44.774;20.506;2023-02-15T23:23:09;67.15;;;33.97;;
56130;SDS011;42000;44.774;20.506;2023-02-15T23:25:35;74.65;;;36.75;;
56130;SDS011;42000;44.774;20.506;2023-02-15T23:28:01;74.15;;;36.10;;
56130;SDS011;42000;44.774;20.506;2023-02-15T23:30:28;66.35;;;33.60;;
56130;SDS011;42000;44.774;20.506;2023-02-15T23:32:54;65.43;;;33.85;;
56130;SDS011;42000;44.774;20.506;2023-02-15T23:35:21;69.97;;;35.45;;
56130;SDS011;42000;44.774;20.506;2023-02-15T23:37:47;72.28;;;36.38;;
56130;SDS011;42000;44.774;20.506;2023-02-15T23:40:13;71.47;;;37.25;;
56130;SDS011;42000;44.774;20.506;2023-02-15T23:42:58;80.10;;;38.88;;
56130;SDS011;42000;44.774;20.506;2023-02-15T23:45:24;75.88;;;38.53;;
56130;SDS011;42000;44.774;20.506;2023-02-15T23:47:50;76.68;;;38.55;;
56130;SDS011;42000;44.774;20.506;2023-02-15T23:50:35;89.30;;;42.33;;
56130;SDS011;42000;44.774;20.506;2023-02-15T23:53:02;99.80;;;48.95;;
56130;SDS011;42000;44.774;20.506;2023-02-15T23:55:35;109.10;;;52.08;;
56130;SDS011;42000;44.774;20.506;2023-02-15T23:58:03;113.95;;;55.80;;
